sensor_id;sensor_type;location;lat;lon;timestamp;temperature;humidity
35541;DHT22;21650;48.840;9.162;2022-08-14T00:01:19;20.30;75.70
35541;DHT22;21650;48.840;9.162;2022-08-14T00:03:44;20.30;75.30
35541;DHT22;21650;48.840;9.162;2022-08-14T00:06:10;20.20;75.30
35541;DHT22;21650;48.840;9.162;2022-08-14T00:08:36;20.20;75.40
35541;DHT22;21650;48.840;9.162;2022-08-14T00:11:01;20.20;75.70
35541;DHT22;21650;48.840;9.162;2022-08-14T00:13:27;20.20;75.90
35541;DHT22;21650;48.840;9.162;2022-08-14T00:15:55;20.10;77.00
35541;DHT22;21650;48.840;9.162;2022-08-14T00:18:23;20.10;77.60
35541;DHT22;21650;48.840;9.162;2022-08-14T00:20:49;20.10;76.80
35541;DHT22;21650;48.840;9.162;2022-08-14T00:23:16;20.00;76.70
35541;DHT22;21650;48.840;9.162;2022-08-14T00:25:45;20.00;77.10
35541;DHT22;21650;48.840;9.162;2022-08-14T00:28:12;20.00;77.50
35541;DHT22;21650;48.840;9.162;2022-08-14T00:30:38;19.80;79.00
35541;DHT22;21650;48.840;9.162;2022-08-14T00:33:04;19.80;78.90
35541;DHT22;21650;48.840;9.162;2022-08-14T00:35:30;19.80;78.80
35541;DHT22;21650;48.840;9.162;2022-08-14T00:37:57;19.70;79.50
35541;DHT22;21650;48.840;9.162;2022-08-14T00:40:22;19.70;79.90
35541;DHT22;21650;48.840;9.162;2022-08-14T00:42:48;19.70;79.00
35541;DHT22;21650;48.840;9.162;2022-08-14T00:45:15;19.70;79.30
35541;DHT22;21650;48.840;9.162;2022-08-14T00:47:42;19.70;78.70
35541;DHT22;21650;48.840;9.162;2022-08-14T00:50:11;19.70;79.20
35541;DHT22;21650;48.840;9.162;2022-08-14T00:52:37;19.60;79.50
35541;DHT22;21650;48.840;9.162;2022-08-14T00:55:05;19.60;79.20
35541;DHT22;21650;48.840;9.162;2022-08-14T00:57:34;19.60;79.00
35541;DHT22;21650;48.840;9.162;2022-08-14T01:00:03;19.60;79.20
35541;DHT22;21650;48.840;9.162;2022-08-14T01:02:29;19.60;79.20
35541;DHT22;21650;48.840;9.162;2022-08-14T01:04:57;19.60;79.50
35541;DHT22;21650;48.840;9.162;2022-08-14T01:07:25;19.50;79.40
35541;DHT22;21650;48.840;9.162;2022-08-14T01:09:55;19.50;80.00
35541;DHT22;21650;48.840;9.162;2022-08-14T01:12:23;19.50;80.20
35541;DHT22;21650;48.840;9.162;2022-08-14T01:14:50;19.50;80.20
35541;DHT22;21650;48.840;9.162;2022-08-14T01:17:17;19.40;80.10
35541;DHT22;21650;48.840;9.162;2022-08-14T01:19:43;19.40;80.00
35541;DHT22;21650;48.840;9.162;2022-08-14T01:22:27;19.40;80.40
35541;DHT22;21650;48.840;9.162;2022-08-14T01:24:53;19.40;81.70
35541;DHT22;21650;48.840;9.162;2022-08-14T01:27:21;19.20;82.40
35541;DHT22;21650;48.840;9.162;2022-08-14T01:29:50;19.20;84.00
35541;DHT22;21650;48.840;9.162;2022-08-14T01:32:19;19.20;83.60
35541;DHT22;21650;48.840;9.162;2022-08-14T01:34:50;19.20;84.00
35541;DHT22;21650;48.840;9.162;2022-08-14T01:37:18;19.10;84.50
35541;DHT22;21650;48.840;9.162;2022-08-14T01:39:48;19.10;83.80
35541;DHT22;21650;48.840;9.162;2022-08-14T01:42:14;19.10;83.70
35541;DHT22;21650;48.840;9.162;2022-08-14T01:44:40;19.10;83.90
35541;DHT22;21650;48.840;9.162;2022-08-14T01:47:07;19.10;84.20
35541;DHT22;21650;48.840;9.162;2022-08-14T01:49:40;18.90;85.40
35541;DHT22;21650;48.840;9.162;2022-08-14T01:52:06;19.00;84.50
35541;DHT22;21650;48.840;9.162;2022-08-14T01:54:34;18.90;84.10
35541;DHT22;21650;48.840;9.162;2022-08-14T01:57:00;18.90;85.50
35541;DHT22;21650;48.840;9.162;2022-08-14T01:59:30;18.90;85.20
35541;DHT22;21650;48.840;9.162;2022-08-14T02:01:59;18.90;85.60
35541;DHT22;21650;48.840;9.162;2022-08-14T02:04:31;18.90;86.10
35541;DHT22;21650;48.840;9.162;2022-08-14T02:06:58;18.90;85.30
35541;DHT22;21650;48.840;9.162;2022-08-14T02:09:24;18.80;85.90
35541;DHT22;21650;48.840;9.162;2022-08-14T02:11:51;18.80;85.50
35541;DHT22;21650;48.840;9.162;2022-08-14T02:14:18;18.80;85.80
35541;DHT22;21650;48.840;9.162;2022-08-14T02:16:48;18.80;86.30
35541;DHT22;21650;48.840;9.162;2022-08-14T02:19:22;18.70;86.00
35541;DHT22;21650;48.840;9.162;2022-08-14T02:21:50;18.60;85.90
35541;DHT22;21650;48.840;9.162;2022-08-14T02:24:21;18.70;87.10
35541;DHT22;21650;48.840;9.162;2022-08-14T02:26:48;18.70;87.30
35541;DHT22;21650;48.840;9.162;2022-08-14T02:29:18;18.60;87.90
35541;DHT22;21650;48.840;9.162;2022-08-14T02:31:46;18.60;87.20
35541;DHT22;21650;48.840;9.162;2022-08-14T02:34:20;18.60;87.00
35541;DHT22;21650;48.840;9.162;2022-08-14T02:36:49;18.50;88.50
35541;DHT22;21650;48.840;9.162;2022-08-14T02:39:16;18.30;89.40
35541;DHT22;21650;48.840;9.162;2022-08-14T02:41:42;18.30;89.10
35541;DHT22;21650;48.840;9.162;2022-08-14T02:44:09;18.40;88.40
35541;DHT22;21650;48.840;9.162;2022-08-14T02:46:37;18.40;88.10
35541;DHT22;21650;48.840;9.162;2022-08-14T02:49:04;18.40;88.10
35541;DHT22;21650;48.840;9.162;2022-08-14T02:51:31;18.40;88.30
35541;DHT22;21650;48.840;9.162;2022-08-14T02:53:57;18.40;88.50
35541;DHT22;21650;48.840;9.162;2022-08-14T02:56:23;18.40;88.70
35541;DHT22;21650;48.840;9.162;2022-08-14T02:58:52;18.30;89.00
35541;DHT22;21650;48.840;9.162;2022-08-14T03:01:20;18.30;90.20
35541;DHT22;21650;48.840;9.162;2022-08-14T03:03:48;18.30;89.30
35541;DHT22;21650;48.840;9.162;2022-08-14T03:06:16;18.30;89.40
35541;DHT22;21650;48.840;9.162;2022-08-14T03:08:42;18.20;89.60
35541;DHT22;21650;48.840;9.162;2022-08-14T03:11:10;18.20;90.10
35541;DHT22;21650;48.840;9.162;2022-08-14T03:13:41;18.20;89.90
35541;DHT22;21650;48.840;9.162;2022-08-14T03:16:09;18.30;90.20
35541;DHT22;21650;48.840;9.162;2022-08-14T03:18:36;18.20;90.00
35541;DHT22;21650;48.840;9.162;2022-08-14T03:23:45;18.10;90.20
35541;DHT22;21650;48.840;9.162;2022-08-14T03:26:13;18.10;90.40
35541;DHT22;21650;48.840;9.162;2022-08-14T03:28:43;18.00;91.10
35541;DHT22;21650;48.840;9.162;2022-08-14T03:31:10;18.00;91.10
35541;DHT22;21650;48.840;9.162;2022-08-14T03:33:37;18.00;91.30
35541;DHT22;21650;48.840;9.162;2022-08-14T03:36:11;17.90;91.70
35541;DHT22;21650;48.840;9.162;2022-08-14T03:38:40;17.90;91.80
35541;DHT22;21650;48.840;9.162;2022-08-14T03:41:10;17.90;91.40
35541;DHT22;21650;48.840;9.162;2022-08-14T03:43:39;17.90;91.30
35541;DHT22;21650;48.840;9.162;2022-08-14T03:46:05;17.90;91.10
35541;DHT22;21650;48.840;9.162;2022-08-14T03:48:31;17.90;91.10
35541;DHT22;21650;48.840;9.162;2022-08-14T03:50:57;17.90;91.10
35541;DHT22;21650;48.840;9.162;2022-08-14T03:53:23;17.90;91.10
35541;DHT22;21650;48.840;9.162;2022-08-14T03:55:49;17.90;91.20
35541;DHT22;21650;48.840;9.162;2022-08-14T03:58:15;17.80;91.10
35541;DHT22;21650;48.840;9.162;2022-08-14T04:00:40;17.80;91.40
35541;DHT22;21650;48.840;9.162;2022-08-14T04:03:08;17.80;91.40
35541;DHT22;21650;48.840;9.162;2022-08-14T04:05:35;17.80;91.40
35541;DHT22;21650;48.840;9.162;2022-08-14T04:08:03;17.70;91.50
35541;DHT22;21650;48.840;9.162;2022-08-14T04:10:29;17.70;91.80
35541;DHT22;21650;48.840;9.162;2022-08-14T04:12:55;17.70;91.70
35541;DHT22;21650;48.840;9.162;2022-08-14T04:15:23;17.70;91.70
35541;DHT22;21650;48.840;9.162;2022-08-14T04:17:49;17.70;91.90
35541;DHT22;21650;48.840;9.162;2022-08-14T04:20:15;17.70;91.80
35541;DHT22;21650;48.840;9.162;2022-08-14T04:22:41;17.60;91.80
35541;DHT22;21650;48.840;9.162;2022-08-14T04:25:08;17.70;92.10
35541;DHT22;21650;48.840;9.162;2022-08-14T04:27:34;17.60;92.20
35541;DHT22;21650;48.840;9.162;2022-08-14T04:30:00;17.60;92.20
35541;DHT22;21650;48.840;9.162;2022-08-14T04:32:26;17.60;92.30
35541;DHT22;21650;48.840;9.162;2022-08-14T04:34:53;17.60;92.50
35541;DHT22;21650;48.840;9.162;2022-08-14T04:37:23;17.60;93.30
35541;DHT22;21650;48.840;9.162;2022-08-14T04:40:09;17.60;93.20
35541;DHT22;21650;48.840;9.162;2022-08-14T04:42:54;17.60;92.70
35541;DHT22;21650;48.840;9.162;2022-08-14T04:45:39;17.70;92.90
35541;DHT22;21650;48.840;9.162;2022-08-14T04:48:12;17.70;93.50
35541;DHT22;21650;48.840;9.162;2022-08-14T04:50:48;17.70;93.70
35541;DHT22;21650;48.840;9.162;2022-08-14T04:53:16;17.70;93.70
35541;DHT22;21650;48.840;9.162;2022-08-14T04:55:43;17.70;94.40
35541;DHT22;21650;48.840;9.162;2022-08-14T04:58:12;17.80;94.50
35541;DHT22;21650;48.840;9.162;2022-08-14T05:00:38;17.80;94.40
35541;DHT22;21650;48.840;9.162;2022-08-14T05:03:06;17.90;94.80
35541;DHT22;21650;48.840;9.162;2022-08-14T05:05:32;17.90;95.00
35541;DHT22;21650;48.840;9.162;2022-08-14T05:08:07;17.90;95.20
35541;DHT22;21650;48.840;9.162;2022-08-14T05:10:35;17.90;95.60
35541;DHT22;21650;48.840;9.162;2022-08-14T05:13:01;18.00;95.80
35541;DHT22;21650;48.840;9.162;2022-08-14T05:15:30;18.00;96.10
35541;DHT22;21650;48.840;9.162;2022-08-14T05:17:55;18.10;95.80
35541;DHT22;21650;48.840;9.162;2022-08-14T05:20:21;18.10;95.70
35541;DHT22;21650;48.840;9.162;2022-08-14T05:22:48;18.10;95.50
35541;DHT22;21650;48.840;9.162;2022-08-14T05:25:14;18.10;95.60
35541;DHT22;21650;48.840;9.162;2022-08-14T05:27:40;18.20;95.90
35541;DHT22;21650;48.840;9.162;2022-08-14T05:30:06;18.30;95.50
35541;DHT22;21650;48.840;9.162;2022-08-14T05:32:32;18.30;95.90
35541;DHT22;21650;48.840;9.162;2022-08-14T05:34:58;18.30;94.90
35541;DHT22;21650;48.840;9.162;2022-08-14T05:37:25;18.20;94.50
35541;DHT22;21650;48.840;9.162;2022-08-14T05:39:51;18.20;94.90
35541;DHT22;21650;48.840;9.162;2022-08-14T05:42:17;18.20;95.80
35541;DHT22;21650;48.840;9.162;2022-08-14T05:44:42;18.30;94.80
35541;DHT22;21650;48.840;9.162;2022-08-14T05:47:08;18.40;95.50
35541;DHT22;21650;48.840;9.162;2022-08-14T05:49:34;18.40;95.10
35541;DHT22;21650;48.840;9.162;2022-08-14T05:52:01;18.50;94.60
35541;DHT22;21650;48.840;9.162;2022-08-14T05:54:26;18.60;95.20
35541;DHT22;21650;48.840;9.162;2022-08-14T05:56:52;18.50;94.90
35541;DHT22;21650;48.840;9.162;2022-08-14T05:59:18;18.60;95.40
35541;DHT22;21650;48.840;9.162;2022-08-14T06:01:44;18.70;94.30
35541;DHT22;21650;48.840;9.162;2022-08-14T06:04:09;18.80;94.40
35541;DHT22;21650;48.840;9.162;2022-08-14T06:06:35;18.70;94.50
35541;DHT22;21650;48.840;9.162;2022-08-14T06:09:00;18.70;94.40
35541;DHT22;21650;48.840;9.162;2022-08-14T06:11:26;18.70;95.10
35541;DHT22;21650;48.840;9.162;2022-08-14T06:13:52;18.80;95.20
35541;DHT22;21650;48.840;9.162;2022-08-14T06:16:17;18.80;95.00
35541;DHT22;21650;48.840;9.162;2022-08-14T06:18:45;18.90;95.60
35541;DHT22;21650;48.840;9.162;2022-08-14T06:21:11;18.90;95.60
35541;DHT22;21650;48.840;9.162;2022-08-14T06:23:37;19.00;95.50
35541;DHT22;21650;48.840;9.162;2022-08-14T06:26:02;19.10;95.10
35541;DHT22;21650;48.840;9.162;2022-08-14T06:28:28;19.00;95.30
35541;DHT22;21650;48.840;9.162;2022-08-14T06:30:54;19.10;95.80
35541;DHT22;21650;48.840;9.162;2022-08-14T06:33:20;19.30;95.70
35541;DHT22;21650;48.840;9.162;2022-08-14T06:35:47;19.50;94.00
35541;DHT22;21650;48.840;9.162;2022-08-14T06:38:19;19.40;93.90
35541;DHT22;21650;48.840;9.162;2022-08-14T06:40:46;19.50;94.50
35541;DHT22;21650;48.840;9.162;2022-08-14T06:43:13;19.80;93.40
35541;DHT22;21650;48.840;9.162;2022-08-14T06:45:40;19.80;92.90
35541;DHT22;21650;48.840;9.162;2022-08-14T06:48:18;19.90;91.80
35541;DHT22;21650;48.840;9.162;2022-08-14T06:50:44;19.90;91.80
35541;DHT22;21650;48.840;9.162;2022-08-14T06:53:11;20.10;91.30
35541;DHT22;21650;48.840;9.162;2022-08-14T06:55:42;20.20;91.40
35541;DHT22;21650;48.840;9.162;2022-08-14T06:58:12;20.30;91.40
35541;DHT22;21650;48.840;9.162;2022-08-14T07:00:40;20.40;90.90
35541;DHT22;21650;48.840;9.162;2022-08-14T07:03:25;20.50;90.20
35541;DHT22;21650;48.840;9.162;2022-08-14T07:06:12;20.80;90.10
35541;DHT22;21650;48.840;9.162;2022-08-14T07:08:37;20.90;88.00
35541;DHT22;21650;48.840;9.162;2022-08-14T07:11:03;20.90;88.00
35541;DHT22;21650;48.840;9.162;2022-08-14T07:13:29;21.00;88.00
35541;DHT22;21650;48.840;9.162;2022-08-14T07:15:55;21.10;89.10
35541;DHT22;21650;48.840;9.162;2022-08-14T07:18:24;21.00;86.90
35541;DHT22;21650;48.840;9.162;2022-08-14T07:20:50;21.10;87.60
35541;DHT22;21650;48.840;9.162;2022-08-14T07:23:16;21.30;86.20
35541;DHT22;21650;48.840;9.162;2022-08-14T07:25:43;21.20;88.40
35541;DHT22;21650;48.840;9.162;2022-08-14T07:28:17;21.40;87.80
35541;DHT22;21650;48.840;9.162;2022-08-14T07:30:43;21.40;86.90
35541;DHT22;21650;48.840;9.162;2022-08-14T07:33:10;21.30;85.50
35541;DHT22;21650;48.840;9.162;2022-08-14T07:35:37;21.40;84.70
35541;DHT22;21650;48.840;9.162;2022-08-14T07:38:05;21.40;85.20
35541;DHT22;21650;48.840;9.162;2022-08-14T07:40:31;21.70;84.80
35541;DHT22;21650;48.840;9.162;2022-08-14T07:42:58;21.80;83.40
35541;DHT22;21650;48.840;9.162;2022-08-14T07:45:24;21.70;81.60
35541;DHT22;21650;48.840;9.162;2022-08-14T07:47:50;21.90;82.80
35541;DHT22;21650;48.840;9.162;2022-08-14T07:50:17;22.00;80.60
35541;DHT22;21650;48.840;9.162;2022-08-14T07:52:45;22.10;83.10
35541;DHT22;21650;48.840;9.162;2022-08-14T07:55:13;22.20;81.70
35541;DHT22;21650;48.840;9.162;2022-08-14T07:57:40;22.40;81.50
35541;DHT22;21650;48.840;9.162;2022-08-14T08:00:11;22.50;80.70
35541;DHT22;21650;48.840;9.162;2022-08-14T08:02:40;22.50;80.10
35541;DHT22;21650;48.840;9.162;2022-08-14T08:05:07;22.30;79.50
35541;DHT22;21650;48.840;9.162;2022-08-14T08:07:34;22.60;81.20
35541;DHT22;21650;48.840;9.162;2022-08-14T08:10:22;22.90;79.50
35541;DHT22;21650;48.840;9.162;2022-08-14T08:15:37;23.20;77.50
35541;DHT22;21650;48.840;9.162;2022-08-14T08:18:04;23.20;76.60
35541;DHT22;21650;48.840;9.162;2022-08-14T08:20:34;23.40;78.30
35541;DHT22;21650;48.840;9.162;2022-08-14T08:23:01;23.60;78.40
35541;DHT22;21650;48.840;9.162;2022-08-14T08:25:35;23.80;76.80
35541;DHT22;21650;48.840;9.162;2022-08-14T08:28:05;24.00;76.30
35541;DHT22;21650;48.840;9.162;2022-08-14T08:30:36;24.00;74.40
35541;DHT22;21650;48.840;9.162;2022-08-14T08:33:03;24.10;73.10
35541;DHT22;21650;48.840;9.162;2022-08-14T08:35:32;24.20;74.20
35541;DHT22;21650;48.840;9.162;2022-08-14T08:38:15;24.40;71.60
35541;DHT22;21650;48.840;9.162;2022-08-14T08:40:49;24.70;71.40
35541;DHT22;21650;48.840;9.162;2022-08-14T08:43:19;25.10;72.10
35541;DHT22;21650;48.840;9.162;2022-08-14T08:48:28;26.20;69.40
35541;DHT22;21650;48.840;9.162;2022-08-14T08:50:56;26.60;66.30
35541;DHT22;21650;48.840;9.162;2022-08-14T08:53:28;27.00;68.50
35541;DHT22;21650;48.840;9.162;2022-08-14T08:55:55;27.50;67.40
35541;DHT22;21650;48.840;9.162;2022-08-14T08:58:21;27.80;68.50
35541;DHT22;21650;48.840;9.162;2022-08-14T09:00:50;28.10;65.10
35541;DHT22;21650;48.840;9.162;2022-08-14T09:03:19;28.30;63.90
35541;DHT22;21650;48.840;9.162;2022-08-14T09:05:52;28.30;63.20
35541;DHT22;21650;48.840;9.162;2022-08-14T09:08:21;28.30;68.70
35541;DHT22;21650;48.840;9.162;2022-08-14T09:10:49;28.50;60.40
35541;DHT22;21650;48.840;9.162;2022-08-14T09:13:15;28.60;60.30
35541;DHT22;21650;48.840;9.162;2022-08-14T09:15:44;28.50;59.50
35541;DHT22;21650;48.840;9.162;2022-08-14T09:18:11;28.60;62.20
35541;DHT22;21650;48.840;9.162;2022-08-14T09:20:43;28.80;62.20
35541;DHT22;21650;48.840;9.162;2022-08-14T09:23:11;29.10;60.70
35541;DHT22;21650;48.840;9.162;2022-08-14T09:25:38;29.30;63.80
35541;DHT22;21650;48.840;9.162;2022-08-14T09:28:07;29.40;62.00
35541;DHT22;21650;48.840;9.162;2022-08-14T09:30:39;29.50;62.30
35541;DHT22;21650;48.840;9.162;2022-08-14T09:36:39;29.60;59.90
35541;DHT22;21650;48.840;9.162;2022-08-14T09:39:41;30.00;61.10
35541;DHT22;21650;48.840;9.162;2022-08-14T09:50:19;30.00;57.40
35541;DHT22;21650;48.840;9.162;2022-08-14T09:52:49;30.00;60.70
35541;DHT22;21650;48.840;9.162;2022-08-14T09:55:17;30.20;56.40
35541;DHT22;21650;48.840;9.162;2022-08-14T09:57:44;29.90;54.40
35541;DHT22;21650;48.840;9.162;2022-08-14T10:00:11;30.00;54.60
35541;DHT22;21650;48.840;9.162;2022-08-14T10:02:49;30.20;55.40
35541;DHT22;21650;48.840;9.162;2022-08-14T10:05:27;30.30;58.20
35541;DHT22;21650;48.840;9.162;2022-08-14T10:07:54;30.40;54.50
35541;DHT22;21650;48.840;9.162;2022-08-14T10:10:38;30.50;57.70
35541;DHT22;21650;48.840;9.162;2022-08-14T10:13:06;30.40;53.30
35541;DHT22;21650;48.840;9.162;2022-08-14T10:15:37;30.40;54.20
35541;DHT22;21650;48.840;9.162;2022-08-14T10:18:14;30.40;54.30
35541;DHT22;21650;48.840;9.162;2022-08-14T10:20:52;30.40;53.50
35541;DHT22;21650;48.840;9.162;2022-08-14T10:23:19;30.20;52.50
35541;DHT22;21650;48.840;9.162;2022-08-14T10:25:52;30.30;53.50
35541;DHT22;21650;48.840;9.162;2022-08-14T10:28:19;30.50;54.10
35541;DHT22;21650;48.840;9.162;2022-08-14T10:30:47;30.50;52.40
35541;DHT22;21650;48.840;9.162;2022-08-14T10:33:29;30.70;53.40
35541;DHT22;21650;48.840;9.162;2022-08-14T10:35:57;30.60;53.40
35541;DHT22;21650;48.840;9.162;2022-08-14T10:38:33;30.70;53.40
35541;DHT22;21650;48.840;9.162;2022-08-14T10:41:13;30.40;53.20
35541;DHT22;21650;48.840;9.162;2022-08-14T10:43:40;30.60;52.40
35541;DHT22;21650;48.840;9.162;2022-08-14T10:46:17;30.50;51.90
35541;DHT22;21650;48.840;9.162;2022-08-14T10:49:02;30.60;52.10
35541;DHT22;21650;48.840;9.162;2022-08-14T10:51:29;30.70;51.20
35541;DHT22;21650;48.840;9.162;2022-08-14T10:53:56;30.60;52.10
35541;DHT22;21650;48.840;9.162;2022-08-14T10:56:30;30.60;51.60
35541;DHT22;21650;48.840;9.162;2022-08-14T10:59:04;30.60;52.00
35541;DHT22;21650;48.840;9.162;2022-08-14T11:01:37;30.80;53.30
35541;DHT22;21650;48.840;9.162;2022-08-14T11:04:04;31.10;51.40
35541;DHT22;21650;48.840;9.162;2022-08-14T11:06:30;31.20;51.40
35541;DHT22;21650;48.840;9.162;2022-08-14T11:08:56;31.30;51.70
35541;DHT22;21650;48.840;9.162;2022-08-14T11:11:23;31.20;53.00
35541;DHT22;21650;48.840;9.162;2022-08-14T11:13:54;31.40;52.70
35541;DHT22;21650;48.840;9.162;2022-08-14T11:16:22;31.60;50.20
35541;DHT22;21650;48.840;9.162;2022-08-14T11:18:49;31.40;50.20
35541;DHT22;21650;48.840;9.162;2022-08-14T11:21:19;31.40;51.20
35541;DHT22;21650;48.840;9.162;2022-08-14T11:23:47;31.60;51.40
35541;DHT22;21650;48.840;9.162;2022-08-14T11:26:17;31.70;50.70
35541;DHT22;21650;48.840;9.162;2022-08-14T11:28:48;31.70;50.00
35541;DHT22;21650;48.840;9.162;2022-08-14T11:31:17;31.70;49.20
35541;DHT22;21650;48.840;9.162;2022-08-14T11:33:42;31.70;50.20
35541;DHT22;21650;48.840;9.162;2022-08-14T11:36:12;31.60;50.20
35541;DHT22;21650;48.840;9.162;2022-08-14T11:38:42;31.50;50.30
35541;DHT22;21650;48.840;9.162;2022-08-14T11:41:10;31.40;51.80
35541;DHT22;21650;48.840;9.162;2022-08-14T11:43:40;31.60;50.10
35541;DHT22;21650;48.840;9.162;2022-08-14T11:46:06;31.60;51.80
35541;DHT22;21650;48.840;9.162;2022-08-14T11:48:32;31.70;49.80
35541;DHT22;21650;48.840;9.162;2022-08-14T11:50:58;31.70;50.10
35541;DHT22;21650;48.840;9.162;2022-08-14T11:53:26;31.70;48.90
35541;DHT22;21650;48.840;9.162;2022-08-14T11:55:57;31.60;50.20
35541;DHT22;21650;48.840;9.162;2022-08-14T11:58:41;31.80;49.50
35541;DHT22;21650;48.840;9.162;2022-08-14T12:01:08;32.00;50.30
35541;DHT22;21650;48.840;9.162;2022-08-14T12:03:45;32.00;48.40
35541;DHT22;21650;48.840;9.162;2022-08-14T12:06:16;31.70;48.60
35541;DHT22;21650;48.840;9.162;2022-08-14T12:08:43;31.90;48.80
35541;DHT22;21650;48.840;9.162;2022-08-14T12:11:13;32.00;49.20
35541;DHT22;21650;48.840;9.162;2022-08-14T12:13:41;32.00;48.70
35541;DHT22;21650;48.840;9.162;2022-08-14T12:16:09;32.30;49.20
35541;DHT22;21650;48.840;9.162;2022-08-14T12:23:38;32.20;47.70
35541;DHT22;21650;48.840;9.162;2022-08-14T12:26:07;32.20;48.90
35541;DHT22;21650;48.840;9.162;2022-08-14T12:28:32;32.20;47.70
35541;DHT22;21650;48.840;9.162;2022-08-14T12:30:59;32.10;47.60
35541;DHT22;21650;48.840;9.162;2022-08-14T12:33:26;31.80;46.30
35541;DHT22;21650;48.840;9.162;2022-08-14T12:35:54;32.20;47.70
35541;DHT22;21650;48.840;9.162;2022-08-14T12:38:41;32.30;47.20
35541;DHT22;21650;48.840;9.162;2022-08-14T12:41:16;32.60;46.50
35541;DHT22;21650;48.840;9.162;2022-08-14T12:43:56;32.30;44.90
35541;DHT22;21650;48.840;9.162;2022-08-14T12:46:40;32.20;46.60
35541;DHT22;21650;48.840;9.162;2022-08-14T12:49:11;32.30;47.10
35541;DHT22;21650;48.840;9.162;2022-08-14T12:51:38;32.40;47.30
35541;DHT22;21650;48.840;9.162;2022-08-14T12:54:16;32.70;47.10
35541;DHT22;21650;48.840;9.162;2022-08-14T12:56:42;32.80;45.60
35541;DHT22;21650;48.840;9.162;2022-08-14T12:59:08;33.00;46.00
35541;DHT22;21650;48.840;9.162;2022-08-14T13:01:35;33.00;45.20
35541;DHT22;21650;48.840;9.162;2022-08-14T13:04:07;32.80;42.80
35541;DHT22;21650;48.840;9.162;2022-08-14T13:06:34;32.40;42.90
35541;DHT22;21650;48.840;9.162;2022-08-14T13:09:01;32.40;45.10
35541;DHT22;21650;48.840;9.162;2022-08-14T13:11:32;32.40;45.00
35541;DHT22;21650;48.840;9.162;2022-08-14T13:14:02;32.60;44.30
35541;DHT22;21650;48.840;9.162;2022-08-14T13:16:29;32.60;44.60
35541;DHT22;21650;48.840;9.162;2022-08-14T13:18:56;32.40;44.10
35541;DHT22;21650;48.840;9.162;2022-08-14T13:21:27;32.70;45.40
35541;DHT22;21650;48.840;9.162;2022-08-14T13:23:54;32.80;44.50
35541;DHT22;21650;48.840;9.162;2022-08-14T13:26:24;32.70;44.40
35541;DHT22;21650;48.840;9.162;2022-08-14T13:28:50;32.80;42.90
35541;DHT22;21650;48.840;9.162;2022-08-14T13:31:21;32.90;43.40
35541;DHT22;21650;48.840;9.162;2022-08-14T13:33:47;33.00;42.40
35541;DHT22;21650;48.840;9.162;2022-08-14T13:36:14;33.00;41.40
35541;DHT22;21650;48.840;9.162;2022-08-14T13:38:42;33.00;41.50
35541;DHT22;21650;48.840;9.162;2022-08-14T13:41:09;33.00;42.30
35541;DHT22;21650;48.840;9.162;2022-08-14T13:43:36;33.00;44.00
35541;DHT22;21650;48.840;9.162;2022-08-14T13:46:04;33.00;42.20
35541;DHT22;21650;48.840;9.162;2022-08-14T13:48:30;32.70;42.90
35541;DHT22;21650;48.840;9.162;2022-08-14T13:50:56;32.70;41.90
35541;DHT22;21650;48.840;9.162;2022-08-14T13:53:25;32.70;43.60
35541;DHT22;21650;48.840;9.162;2022-08-14T13:55:52;33.10;43.30
35541;DHT22;21650;48.840;9.162;2022-08-14T13:58:20;33.50;42.20
35541;DHT22;21650;48.840;9.162;2022-08-14T14:00:50;33.40;42.00
35541;DHT22;21650;48.840;9.162;2022-08-14T14:03:23;33.20;40.80
35541;DHT22;21650;48.840;9.162;2022-08-14T14:05:51;32.80;39.00
35541;DHT22;21650;48.840;9.162;2022-08-14T14:08:19;33.10;39.00
35541;DHT22;21650;48.840;9.162;2022-08-14T14:10:46;33.30;42.00
35541;DHT22;21650;48.840;9.162;2022-08-14T14:13:14;33.40;43.60
35541;DHT22;21650;48.840;9.162;2022-08-14T14:15:42;33.80;43.50
35541;DHT22;21650;48.840;9.162;2022-08-14T14:18:07;34.20;40.50
35541;DHT22;21650;48.840;9.162;2022-08-14T14:20:34;33.80;38.10
35541;DHT22;21650;48.840;9.162;2022-08-14T14:23:00;33.70;40.60
35541;DHT22;21650;48.840;9.162;2022-08-14T14:25:26;33.70;41.20
35541;DHT22;21650;48.840;9.162;2022-08-14T14:27:53;33.70;41.80
35541;DHT22;21650;48.840;9.162;2022-08-14T14:30:21;33.80;43.00
35541;DHT22;21650;48.840;9.162;2022-08-14T14:32:48;34.10;41.90
35541;DHT22;21650;48.840;9.162;2022-08-14T14:35:16;33.90;41.00
35541;DHT22;21650;48.840;9.162;2022-08-14T14:37:46;33.60;38.30
35541;DHT22;21650;48.840;9.162;2022-08-14T14:40:14;33.60;41.20
35541;DHT22;21650;48.840;9.162;2022-08-14T14:42:58;33.50;40.20
35541;DHT22;21650;48.840;9.162;2022-08-14T14:45:28;33.30;38.50
35541;DHT22;21650;48.840;9.162;2022-08-14T14:47:55;33.40;41.60
35541;DHT22;21650;48.840;9.162;2022-08-14T14:50:22;33.30;40.70
35541;DHT22;21650;48.840;9.162;2022-08-14T14:52:49;33.20;39.00
35541;DHT22;21650;48.840;9.162;2022-08-14T14:55:16;33.20;41.30
35541;DHT22;21650;48.840;9.162;2022-08-14T14:57:43;33.20;39.70
35541;DHT22;21650;48.840;9.162;2022-08-14T15:00:15;33.00;40.70
35541;DHT22;21650;48.840;9.162;2022-08-14T15:02:44;32.90;40.70
35541;DHT22;21650;48.840;9.162;2022-08-14T15:05:12;32.90;42.40
35541;DHT22;21650;48.840;9.162;2022-08-14T15:07:38;32.90;41.60
35541;DHT22;21650;48.840;9.162;2022-08-14T15:10:06;32.70;42.80
35541;DHT22;21650;48.840;9.162;2022-08-14T15:12:32;32.70;41.20
35541;DHT22;21650;48.840;9.162;2022-08-14T15:14:58;32.40;41.90
35541;DHT22;21650;48.840;9.162;2022-08-14T15:17:24;32.40;41.20
35541;DHT22;21650;48.840;9.162;2022-08-14T15:19:50;32.20;41.50
35541;DHT22;21650;48.840;9.162;2022-08-14T15:22:16;32.40;41.40
35541;DHT22;21650;48.840;9.162;2022-08-14T15:27:16;32.00;40.10
35541;DHT22;21650;48.840;9.162;2022-08-14T15:29:41;31.90;42.10
35541;DHT22;21650;48.840;9.162;2022-08-14T15:32:08;31.90;41.90
35541;DHT22;21650;48.840;9.162;2022-08-14T15:34:35;31.80;42.70
35541;DHT22;21650;48.840;9.162;2022-08-14T15:37:05;31.70;43.60
35541;DHT22;21650;48.840;9.162;2022-08-14T15:39:32;31.60;42.50
35541;DHT22;21650;48.840;9.162;2022-08-14T15:41:58;31.60;43.40
35541;DHT22;21650;48.840;9.162;2022-08-14T15:44:25;31.60;40.40
35541;DHT22;21650;48.840;9.162;2022-08-14T15:46:51;31.60;41.80
35541;DHT22;21650;48.840;9.162;2022-08-14T15:49:16;31.60;40.80
35541;DHT22;21650;48.840;9.162;2022-08-14T15:51:43;31.60;42.70
35541;DHT22;21650;48.840;9.162;2022-08-14T15:54:09;31.70;45.30
35541;DHT22;21650;48.840;9.162;2022-08-14T15:56:35;31.70;44.00
35541;DHT22;21650;48.840;9.162;2022-08-14T15:59:01;31.60;43.50
35541;DHT22;21650;48.840;9.162;2022-08-14T16:01:27;31.50;41.70
35541;DHT22;21650;48.840;9.162;2022-08-14T16:03:55;31.50;41.00
35541;DHT22;21650;48.840;9.162;2022-08-14T16:06:24;31.60;44.00